Latest Weather Observations for Lake Grace

IDW60801

Issued at 10:33 pm WST Sunday 24 July 2016 (issued every 30 minutes, with the page automatically refreshed every 10 minutes)

About weather observations | Map of weather stations | Latest weather observations for WA | Other Formats
Station Details ID: 010911 Name: LAKE GRACE Lat: -33.10 Lon: 118.46 Height: 286.0 m
Data from the previous 72 hours. | See also: Recent months at Lake Grace
Date/Time
WST
Temp
°C
App
Temp
°C
Dew
Point
°C
Rel
Hum
%
Delta-T
°C
Wind Press
QNH
hPa
Press
MSL
hPa
Rain since
9am
mm
Dir  Spd
km/h
Gust
km/h
Spd
kts
Gust
kts
24/10:30pm 9.4 7.1 5.8 78 1.7 W 7 11 4 6 1026.7 1027.0 0.0
24/10:00pm 9.1 6.4 5.7 79 1.6 WNW 9 11 5 6 1026.7 1027.0 0.0
24/09:30pm 9.1 6.9 5.3 77 1.7 WNW 6 7 3 4 1026.5 1026.8 0.0
24/09:00pm 9.2 6.9 5.0 75 1.9 WNW 6 9 3 5 1026.5 1026.8 0.0
24/08:30pm 9.3 6.8 4.9 74 2.0 WSW 7 11 4 6 1026.7 1027.0 0.0
24/08:00pm 9.3 6.8 4.7 73 2.1 WSW 7 11 4 6 1026.5 1026.8 0.0
24/07:30pm 9.3 6.0 4.5 72 2.2 WSW 11 17 6 9 1026.6 1026.9 0.0
24/07:00pm 9.3 6.0 4.3 71 2.2 WSW 11 19 6 10 1026.3 1026.6 0.0
24/06:30pm 9.3 5.5 4.1 70 2.3 WSW 13 19 7 10 1026.2 1026.5 0.0
24/06:00pm 9.5 5.7 4.1 69 2.4 WSW 13 20 7 11 1026.0 1026.2 0.0
24/05:30pm 9.5 6.1 3.9 68 2.5 WSW 11 19 6 10 1025.9 1026.1 0.0
24/05:00pm 9.9 5.7 3.9 66 2.7 WSW 15 24 8 13 1025.6 1025.8 0.0
24/04:30pm 10.3 6.6 4.5 67 2.6 WSW 13 19 7 10 1025.5 1025.7 0.0
24/04:00pm 10.5 6.8 4.2 65 2.8 WSW 13 20 7 11 1025.5 1025.7 0.0
24/03:30pm 10.6 7.6 4.3 65 2.9 WSW 9 15 5 8 1025.5 1025.7 0.0
24/03:00pm 10.7 7.7 4.2 64 2.9 W 9 15 5 8 1025.4 1025.6 0.0
24/02:30pm 10.4 7.5 4.5 67 2.7 WNW 9 13 5 7 1025.3 1025.5 0.0
24/02:00pm 10.0 6.6 4.0 66 2.7 WSW 11 17 6 9 1025.6 1025.8 0.0
24/01:30pm 10.0 6.2 4.0 66 2.7 SW 13 19 7 10 1025.7 1025.9 0.0
24/01:00pm 10.1 6.6 3.6 64 2.9 SSW 11 15 6 8 1026.1 1026.3 0.0
24/12:30pm 10.1 7.4 3.6 64 2.9 SW 7 13 4 7 1026.5 1026.8 0.0
24/12:00pm 9.8 6.4 3.8 66 2.7 SW 11 20 6 11 1026.9 1027.2 0.0
24/11:30am 9.2 5.8 4.0 70 2.3 SW 11 15 6 8 1027.2 1027.5 0.0
24/11:00am 9.4 6.9 4.8 73 2.1 SSW 7 13 4 7 1027.5 1027.8 0.0
24/10:30am 7.9 5.4 5.0 82 1.3 WSW 7 9 4 5 1027.8 1028.1 0.0
24/10:00am 6.8 4.3 4.8 87 0.9 WSW 7 11 4 6 1027.8 1028.1 0.0
24/09:30am 6.0 3.7 4.8 92 0.5 WNW 6 7 3 4 1027.6 1027.9 0.0
24/09:00am 4.8 3.1 3.8 93 0.4 WSW 2 7 1 4 1027.4 1027.7 0.8
24/08:30am 3.7 1.0 2.8 94 0.4 SW 6 9 3 5 1027.2 1027.5 0.8
24/08:00am 2.6 0.5 1.9 95 0.3 SSW 2 7 1 4 1027.0 1027.3 0.8
24/07:30am 0.7 -1.3 -0.2 94 0.3 CALM 0 0 0 0 1026.5 1026.8 0.8
24/07:00am 0.2 -1.9 -0.8 93 0.4 CALM 0 0 0 0 1026.3 1026.6 0.8
24/06:30am -0.1 -2.2 -1.1 93 0.4 CALM 0 0 0 0 1025.9 1026.1 0.8
24/06:00am 0.0 -2.1 -1.1 92 0.4 CALM 0 0 0 0 1025.7 1025.9 0.8
24/05:30am 1.5 -1.2 0.3 92 0.5 SW 4 7 2 4 1025.7 1025.9 0.8
24/05:00am 0.8 -1.3 -0.5 91 0.5 CALM 0 6 0 3 1025.6 1025.8 0.8
24/04:30am 1.2 -0.8 -0.3 90 0.6 CALM 0 0 0 0 1025.4 1025.6 0.8
24/04:00am 1.1 -1.0 -0.7 88 0.6 CALM 0 0 0 0 1025.4 1025.6 0.8
24/03:30am 2.5 0.2 0.6 87 0.7 W 2 7 1 4 1025.3 1025.5 0.8
24/03:00am 2.8 -0.4 1.0 88 0.7 WSW 7 11 4 6 1025.3 1025.5 0.8
24/02:30am 2.8 -0.4 1.0 88 0.7 WSW 7 11 4 6 1025.3 1025.5 0.8
24/02:00am 2.9 -0.6 1.1 88 0.7 SW 9 11 5 6 1025.3 1025.5 0.8
24/01:30am 2.9 -0.2 1.3 89 0.6 SW 7 11 4 6 1025.1 1025.3 0.8
24/01:00am 3.0 -0.5 1.2 88 0.7 WSW 9 13 5 7 1025.1 1025.3 0.8
24/12:30am 2.9 -0.2 1.3 89 0.6 WSW 7 9 4 5 1025.2 1025.4 0.8
24/12:00am 3.0 0.1 1.2 88 0.7 SW 6 9 3 5 1025.3 1025.5 0.8
 
Date/Time
WST
Temp
°C
App
Temp
°C
Dew
Point
°C
Rel
Hum
%
Delta-T
°C
Wind Press
QNH
hPa
Press
MSL
hPa
Rain since
9am
mm
Dir  Spd
km/h
Gust
km/h
Spd
kts
Gust
kts
23/11:30pm 3.4 0.4 1.8 89 0.6 SW 7 11 4 6 1025.3 1025.5 0.8
23/11:00pm 3.2 0.1 1.4 88 0.7 SSW 7 11 4 6 1025.3 1025.5 0.8
23/10:30pm 3.7 0.3 1.9 88 0.7 SSW 9 13 5 7 1025.2 1025.4 0.8
23/10:00pm 3.9 1.1 2.1 88 0.7 SW 6 9 3 5 1025.1 1025.3 0.8
23/09:30pm 3.9 1.8 1.8 86 0.8 SW 2 7 1 4 1024.8 1025.0 0.8
23/09:00pm 4.8 3.2 2.3 84 1.0 CALM 0 0 0 0 1024.5 1024.7 0.8
23/08:30pm 5.6 2.8 2.9 83 1.1 SSW 7 11 4 6 1024.4 1024.6 0.8
23/08:00pm 6.1 2.9 2.9 80 1.3 SW 9 13 5 7 1024.3 1024.5 0.8
23/07:30pm 6.8 3.2 3.1 77 1.6 SW 11 17 6 9 1023.9 1024.2 0.8
23/07:00pm 7.5 3.6 3.6 76 1.7 SSW 13 19 7 10 1023.6 1023.9 0.8
23/06:30pm 7.7 3.5 3.7 76 1.7 SSW 15 22 8 12 1023.2 1023.4 0.8
23/06:00pm 8.1 4.3 3.8 74 1.9 SSW 13 20 7 11 1022.8 1023.0 0.8
23/05:30pm 8.7 4.9 4.1 73 2.0 SSW 13 20 7 11 1022.2 1022.4 0.8
23/05:00pm 9.8 6.1 4.4 69 2.4 SW 13 22 7 12 1021.7 1021.9 0.8
23/04:30pm 10.6 5.5 4.1 64 2.9 SW 20 30 11 16 1021.4 1021.6 0.8
23/04:00pm 11.7 6.9 5.8 67 2.8 SW 20 32 11 17 1021.1 1021.3 0.8
23/03:30pm 11.1 5.8 5.2 67 2.7 SW 22 33 12 18 1020.9 1021.1 0.8
23/03:00pm 12.3 7.4 7.0 70 2.6 SW 22 33 12 18 1020.6 1020.8 0.8
23/02:30pm 10.7 6.7 8.1 84 1.3 SW 19 28 10 15 1020.6 1020.8 0.8
23/02:00pm 9.4 4.1 6.8 84 1.2 SW 24 43 13 23 1020.6 1020.8 0.8
23/01:30pm 11.5 8.1 9.1 85 1.2 WSW 17 26 9 14 1020.1 1020.3 0.4
23/01:00pm 11.3 7.2 7.8 79 1.7 W 19 28 10 15 1020.0 1020.2 0.0
23/12:30pm 11.1 6.1 6.5 73 2.2 W 22 33 12 18 1020.4 1020.7 0.0
23/12:00pm 12.3 6.8 5.9 65 3.0 W 24 39 13 21 1020.6 1020.8 0.0
23/11:30am 11.5 6.8 6.2 70 2.5 W 20 35 11 19 1021.1 1021.3 0.0
23/11:00am 11.3 5.4 5.8 69 2.6 W 26 39 14 21 1021.4 1021.6 0.0
23/10:30am 11.1 5.7 6.5 73 2.2 WNW 24 35 13 19 1021.3 1021.5 0.0
23/10:00am 10.2 4.6 5.4 72 2.2 NW 24 33 13 18 1021.3 1021.5 0.0
23/09:30am 9.3 4.0 5.1 75 1.9 NW 22 30 12 16 1021.5 1021.7 0.0
23/09:00am 8.5 3.9 5.4 81 1.4 WNW 19 32 10 17 1021.8 1022.0 0.0
23/08:30am 8.3 4.3 5.1 80 1.5 WNW 15 24 8 13 1021.8 1022.0 0.0
23/08:00am 7.6 4.3 4.4 80 1.4 NW 11 17 6 9 1021.6 1021.8 0.0
23/07:30am 7.3 3.9 3.9 79 1.5 NW 11 17 6 9 1021.5 1021.7 0.0
23/07:00am 7.2 3.8 4.0 80 1.4 WNW 11 13 6 7 1021.4 1021.6 0.0
23/06:30am 7.3 4.3 4.3 81 1.3 NW 9 13 5 7 1021.4 1021.6 0.0
23/06:00am 7.2 4.3 4.7 84 1.1 NNW 9 11 5 6 1021.3 1021.5 0.0
23/05:30am 7.0 4.1 4.7 85 1.0 NW 9 17 5 9 1021.6 1021.8 0.0
23/05:00am 7.0 3.7 4.7 85 1.0 NW 11 15 6 8 1021.7 1021.9 0.0
23/04:30am 7.3 4.4 4.8 84 1.1 NW 9 13 5 7 1021.7 1021.9 0.0
23/04:00am 7.2 4.3 4.9 85 1.0 NNW 9 13 5 7 1021.7 1021.9 0.0
23/03:30am 7.3 4.4 4.8 84 1.1 NW 9 13 5 7 1022.0 1022.2 0.0
23/03:00am 7.5 4.2 4.6 82 1.3 WNW 11 17 6 9 1022.4 1022.6 0.0
23/02:30am 7.6 3.9 4.6 81 1.3 NW 13 17 7 9 1022.1 1022.3 0.0
23/02:00am 7.7 4.7 3.9 77 1.7 NW 9 15 5 8 1022.2 1022.4 0.0
23/01:30am 7.7 4.7 4.3 79 1.5 NW 9 13 5 7 1022.1 1022.3 0.0
23/01:00am 7.3 4.7 4.1 80 1.4 N 7 7 4 4 1022.2 1022.4 0.0
23/12:30am 7.8 5.3 4.0 77 1.7 NW 6 9 3 5 1022.5 1022.7 0.0
23/12:00am 7.3 5.0 4.6 83 1.2 N 6 9 3 5 1022.6 1022.8 0.0
 
Date/Time
WST
Temp
°C
App
Temp
°C
Dew
Point
°C
Rel
Hum
%
Delta-T
°C
Wind Press
QNH
hPa
Press
MSL
hPa
Rain since
9am
mm
Dir  Spd
km/h
Gust
km/h
Spd
kts
Gust
kts
22/11:30pm 7.5 6.3 4.8 83 1.2 CALM 0 6 0 3 1022.8 1023.0 0.0
22/11:00pm 7.3 4.8 4.6 83 1.2 NNW 7 11 4 6 1022.8 1023.0 0.0
22/10:30pm 7.4 5.8 4.7 83 1.2 SSE 2 7 1 4 1022.8 1023.0 0.0
22/10:00pm 7.8 6.6 4.4 79 1.5 CALM 0 0 0 0 1023.3 1023.6 0.0
22/09:30pm 7.7 6.5 4.7 81 1.3 CALM 0 0 0 0 1023.1 1023.3 0.0
22/09:00pm 7.5 6.3 4.6 82 1.3 CALM 0 0 0 0 1023.4 1023.7 0.0
22/08:30pm 7.8 5.8 4.2 78 1.6 NNW 4 7 2 4 1023.5 1023.8 0.0
22/08:00pm 7.6 5.2 4.2 79 1.5 NW 6 7 3 4 1023.6 1023.9 0.0
22/07:30pm 7.2 5.5 4.0 80 1.4 N 2 7 1 4 1023.4 1023.7 0.0
22/07:00pm 8.5 5.9 3.4 70 2.2 SW 6 9 3 5 1023.2 1023.4 0.0
22/06:30pm 8.3 6.8 3.2 70 2.2 CALM 0 0 0 0 1023.0 1023.2 0.0
22/06:00pm 8.4 5.8 3.1 69 2.3 WSW 6 9 3 5 1022.8 1023.0 0.0
22/05:30pm 9.1 6.3 2.9 65 2.7 WSW 7 11 4 6 1022.6 1022.8 0.0
22/05:00pm 9.8 6.1 2.4 60 3.2 WSW 11 15 6 8 1022.5 1022.7 0.0
22/04:30pm 10.7 6.9 2.0 55 3.8 SW 11 19 6 10 1022.4 1022.6 0.0
22/04:00pm 10.7 6.6 2.5 57 3.6 SW 13 19 7 10 1022.4 1022.6 0.0
22/03:30pm 10.8 6.2 1.4 52 4.0 WSW 15 22 8 12 1022.3 1022.5 0.0
22/03:00pm 10.8 7.1 2.4 56 3.6 SW 11 17 6 9 1022.3 1022.5 0.0
22/02:30pm 10.9 6.4 2.0 54 3.8 SW 15 24 8 13 1022.2 1022.4 0.0
22/02:00pm 11.7 7.3 2.5 53 4.0 SW 15 20 8 11 1022.2 1022.4 0.0
22/01:30pm 10.9 6.3 1.4 52 4.0 SW 15 26 8 14 1022.3 1022.5 0.0
22/01:00pm 11.3 7.3 2.6 55 3.8 SSW 13 20 7 11 1022.2 1022.4 0.0
22/12:30pm 10.5 6.5 3.1 60 3.3 SSW 13 20 7 11 1022.3 1022.5 0.0
22/12:00pm 9.6 5.2 2.7 62 3.0 SSW 15 24 8 13 1022.6 1022.8 0.0
22/11:30am 9.3 5.0 3.3 66 2.6 SW 15 22 8 12 1022.9 1023.1 0.0
22/11:00am 9.7 5.5 3.7 66 2.7 SW 15 24 8 13 1023.0 1023.2 0.0
22/10:30am 8.9 4.6 3.3 68 2.4 SSW 15 26 8 14 1022.8 1023.0 0.0
22/10:00am 8.4 4.2 3.8 73 2.0 SW 15 26 8 14 1022.6 1022.8 0.0
22/09:30am 7.7 3.5 3.9 77 1.7 WSW 15 24 8 13 1022.2 1022.4 0.0
22/09:00am 7.0 2.5 4.1 82 1.3 WSW 17 22 9 12 1021.7 1021.9 1.6
22/08:30am 5.7 1.8 3.5 86 0.9 WSW 13 19 7 10 1021.0 1021.2 1.6
22/08:00am 5.1 1.2 3.3 88 0.8 W 13 19 7 10 1020.4 1020.7 1.6
22/07:30am 4.6 1.0 2.9 89 0.7 W 11 17 6 9 1019.8 1020.0 1.6
22/07:00am 4.4 0.8 2.8 89 0.7 WSW 11 19 6 10 1019.5 1019.7 1.6
22/06:30am 4.5 0.9 2.8 89 0.7 W 11 13 6 7 1019.0 1019.2 1.6
22/06:00am 4.6 1.4 2.8 88 0.7 W 9 15 5 8 1018.7 1018.9 1.6
22/05:30am 4.9 1.3 2.9 87 0.8 WSW 11 19 6 10 1018.3 1018.5 1.6
22/05:00am 5.3 1.4 3.2 86 0.9 WSW 13 20 7 11 1017.9 1018.1 1.6
22/04:30am 5.6 2.1 3.3 85 1.0 WSW 11 19 6 10 1017.5 1017.7 1.6
22/04:00am 6.0 1.8 3.7 85 1.0 WSW 15 24 8 13 1017.2 1017.3 1.6
22/03:30am 6.1 1.9 3.6 84 1.1 WSW 15 22 8 12 1017.0 1017.1 1.6
22/03:00am 6.5 2.0 4.0 84 1.1 W 17 24 9 13 1016.5 1016.7 1.6
22/02:30am 6.7 1.7 3.7 81 1.3 WSW 19 30 10 16 1016.4 1016.6 1.6
22/02:00am 7.3 1.4 3.7 78 1.6 WSW 24 44 13 24 1016.1 1016.3 1.6
22/01:30am 7.9 2.9 4.5 79 1.5 WSW 20 39 11 21 1015.6 1015.8 1.6
22/01:00am 8.1 2.7 4.5 78 1.6 WSW 22 37 12 20 1015.0 1015.2 1.6
22/12:30am 8.1 3.2 5.2 82 1.3 WSW 20 32 11 17 1014.5 1014.7 1.6
22/12:00am 8.3 4.3 6.6 89 0.8 WSW 17 28 9 15 1014.2 1014.3 1.6
 
Date/Time
WST
Temp
°C
App
Temp
°C
Dew
Point
°C
Rel
Hum
%
Delta-T
°C
Wind Press
QNH
hPa
Press
MSL
hPa
Rain since
9am
mm
Dir  Spd
km/h
Gust
km/h
Spd
kts
Gust
kts
21/11:30pm 8.4 3.5 6.9 90 0.7 WSW 22 35 12 19 1013.8 1013.9 1.6
21/11:00pm 8.6 2.6 6.9 89 0.8 W 28 43 15 23 1013.4 1013.5 1.0

Other Formats:

Comma delimited format used in spreadsheet applications
http://www.bom.gov.au/fwo/IDW60801/IDW60801.95637.axf

JavaScript Object Notation format (JSON) in row-major order
http://www.bom.gov.au/fwo/IDW60801/IDW60801.95637.json